createdAt,value
2018-09-03T00:00:30.961Z,82.79
2018-09-03T00:01:30.959Z,82.50
2018-09-03T00:02:30.963Z,82.31
2018-09-03T00:03:30.962Z,82.60
2018-09-03T00:04:30.966Z,82.41
2018-09-03T00:05:30.961Z,82.70
2018-09-03T00:06:30.966Z,82.50
2018-09-03T00:07:30.966Z,82.50
2018-09-03T00:08:30.967Z,82.02
2018-09-03T00:09:30.967Z,81.83
2018-09-03T00:10:30.970Z,81.87
2018-09-03T00:11:30.970Z,82.16
2018-09-03T00:12:30.973Z,82.31
2018-09-03T00:13:30.970Z,81.93
2018-09-03T00:14:30.972Z,82.16
2018-09-03T00:15:30.969Z,82.12
2018-09-03T00:16:30.972Z,81.96
2018-09-03T00:17:30.978Z,81.93
2018-09-03T00:18:30.974Z,81.68
2018-09-03T00:19:30.977Z,81.45
2018-09-03T00:20:30.976Z,81.87
2018-09-03T00:21:30.978Z,81.68
2018-09-03T00:22:30.980Z,81.35
2018-09-03T00:23:30.980Z,81.29
2018-09-03T00:24:30.986Z,81.20
2018-09-03T00:25:30.981Z,81.48
2018-09-03T00:26:30.983Z,81.77
2018-09-03T00:27:30.985Z,81.45
2018-09-03T00:28:30.989Z,81.39
2018-09-03T00:29:30.983Z,81.20
2018-09-03T00:30:30.986Z,81.39
2018-09-03T00:31:30.986Z,81.77
2018-09-03T00:32:30.995Z,82.12
2018-09-03T00:33:30.990Z,81.96
2018-09-03T00:34:30.991Z,82.02
2018-09-03T00:35:30.993Z,82.60
2018-09-03T00:36:30.994Z,81.93
2018-09-03T00:37:30.993Z,82.41
2018-09-03T00:38:30.998Z,82.21
2018-09-03T00:39:30.995Z,82.12
2018-09-03T00:40:30.996Z,82.41
2018-09-03T00:41:31.005Z,82.79
2018-09-03T00:42:31.003Z,82.31
2018-09-03T00:43:31.004Z,82.50
2018-09-03T00:44:30.997Z,82.41
2018-09-03T00:45:31.001Z,82.50
2018-09-03T00:46:31.003Z,83.18
2018-09-03T00:47:31.004Z,83.28
2018-09-03T00:48:31.004Z,83.18
2018-09-03T00:49:31.005Z,82.98
2018-09-03T00:50:31.006Z,82.50
2018-09-03T00:51:31.013Z,82.89
2018-09-03T00:52:31.008Z,82.79
2018-09-03T00:53:31.010Z,83.08
2018-09-03T00:54:31.011Z,83.28
2018-09-03T00:55:31.011Z,82.98
2018-09-03T00:56:31.014Z,82.89
2018-09-03T00:57:31.013Z,82.50
2018-09-03T00:58:31.014Z,82.50
2018-09-03T00:59:31.016Z,82.41
2018-09-03T01:00:31.015Z,82.89
2018-09-03T01:01:31.019Z,82.79
2018-09-03T01:02:31.018Z,82.79
2018-09-03T01:03:31.019Z,82.70
2018-09-03T01:04:31.019Z,83.08
2018-09-03T01:05:31.019Z,83.08
2018-09-03T01:06:31.025Z,82.60
2018-09-03T01:07:31.024Z,82.41
2018-09-03T01:08:31.024Z,83.37
2018-09-03T01:09:31.024Z,82.79
2018-09-03T01:10:31.025Z,82.89
2018-09-03T01:11:31.026Z,82.98
2018-09-03T01:12:31.027Z,83.37
2018-09-03T01:13:31.027Z,82.60
2018-09-03T01:14:31.026Z,82.60
2018-09-03T01:15:31.031Z,82.70
2018-09-03T01:16:31.032Z,82.70
2018-09-03T01:17:31.034Z,82.79
2018-09-03T01:18:31.032Z,82.70
2018-09-03T01:19:31.031Z,82.60
2018-09-03T01:20:31.034Z,82.79
2018-09-03T01:21:31.042Z,82.41
2018-09-03T01:22:31.037Z,82.70
2018-09-03T01:23:31.036Z,82.21
2018-09-03T01:24:31.037Z,82.60
2018-09-03T01:25:31.036Z,82.50
2018-09-03T01:26:31.038Z,82.50
2018-09-03T01:27:31.040Z,82.50
2018-09-03T01:28:31.040Z,82.60
2018-09-03T01:29:31.050Z,82.70
2018-09-03T01:30:31.043Z,82.50
2018-09-03T01:31:31.079Z,82.89
2018-09-03T01:32:31.045Z,82.60
2018-09-03T01:33:31.043Z,82.50
2018-09-03T01:34:31.045Z,82.70
2018-09-03T01:35:31.046Z,82.41
2018-09-03T01:36:31.047Z,82.31
2018-09-03T01:37:31.048Z,82.60
2018-09-03T01:38:31.045Z,82.70
2018-09-03T01:39:31.050Z,82.50
2018-09-03T01:40:31.049Z,82.79
2018-09-03T01:41:31.050Z,82.41
2018-09-03T01:42:31.051Z,82.31
2018-09-03T01:43:31.053Z,82.41
2018-09-03T01:44:31.053Z,82.50
2018-09-03T01:45:31.053Z,82.31
2018-09-03T01:46:31.053Z,82.50
2018-09-03T01:47:31.056Z,82.41
2018-09-03T01:48:31.056Z,82.31
2018-09-03T01:49:31.061Z,82.02
2018-09-03T01:50:31.058Z,82.31
2018-09-03T01:51:31.059Z,82.60
2018-09-03T01:52:31.058Z,81.83
2018-09-03T01:53:31.060Z,81.83
2018-09-03T01:54:31.063Z,82.12
2018-09-03T01:55:31.061Z,81.96
2018-09-03T01:56:31.066Z,81.77
2018-09-03T01:57:31.066Z,81.96
2018-09-03T01:58:31.066Z,82.06
2018-09-03T01:59:31.068Z,82.16
2018-09-03T02:00:31.067Z,82.35
2018-09-03T02:01:31.066Z,81.48
2018-09-03T02:02:31.069Z,81.96
2018-09-03T02:03:31.068Z,81.39
2018-09-03T02:04:31.069Z,81.96
2018-09-03T02:05:31.072Z,81.96
2018-09-03T02:06:31.071Z,81.96
2018-09-03T02:07:31.072Z,81.77
2018-09-03T02:08:31.073Z,82.16
2018-09-03T02:09:31.132Z,82.35
2018-09-03T02:10:31.073Z,82.06
2018-09-03T02:11:31.078Z,81.87
2018-09-03T02:12:31.076Z,81.39
2018-09-03T02:13:31.078Z,81.96
2018-09-03T02:14:31.078Z,81.68
2018-09-03T02:15:31.080Z,81.48
2018-09-03T02:16:31.081Z,81.87
2018-09-03T02:17:31.082Z,82.06
2018-09-03T02:18:31.081Z,81.96
2018-09-03T02:19:31.082Z,82.06
2018-09-03T02:20:31.087Z,81.20
2018-09-03T02:21:31.084Z,81.48
2018-09-03T02:22:31.088Z,81.20
2018-09-03T02:23:31.087Z,82.16
2018-09-03T02:24:31.089Z,81.77
2018-09-03T02:25:31.088Z,81.96
2018-09-03T02:26:31.089Z,82.06
2018-09-03T02:27:31.092Z,82.16
2018-09-03T02:28:31.090Z,82.64
2018-09-03T02:29:31.094Z,82.54
2018-09-03T02:30:31.090Z,82.83
2018-09-03T02:31:31.094Z,82.45
2018-09-03T02:32:31.101Z,82.64
2018-09-03T02:33:31.100Z,82.26
2018-09-03T02:34:31.098Z,82.45
2018-09-03T02:35:31.095Z,82.06
2018-09-03T02:36:31.098Z,82.45
2018-09-03T02:37:31.098Z,82.64
2018-09-03T02:38:31.098Z,82.26
2018-09-03T02:39:31.101Z,82.54
2018-09-03T02:40:31.104Z,82.45
2018-09-03T02:41:31.102Z,82.35
2018-09-03T02:42:31.114Z,82.74
2018-09-03T02:43:31.107Z,82.93
2018-09-03T02:44:31.106Z,82.64
2018-09-03T02:45:31.107Z,83.22
2018-09-03T02:46:31.108Z,82.45
2018-09-03T02:47:31.109Z,82.64
2018-09-03T02:48:31.111Z,82.54
2018-09-03T02:49:31.110Z,83.12
2018-09-03T02:50:31.110Z,83.41
2018-09-03T02:51:31.111Z,82.83
2018-09-03T02:52:31.110Z,82.93
2018-09-03T02:53:31.113Z,83.18
2018-09-03T02:54:31.114Z,83.51
2018-09-03T02:55:31.114Z,83.47
2018-09-03T02:56:31.120Z,84.23
2018-09-03T02:57:31.117Z,83.75
2018-09-03T02:58:31.123Z,83.75
2018-09-03T02:59:31.124Z,83.75
2018-09-03T03:00:31.126Z,84.43
2018-09-03T03:01:31.121Z,84.14
2018-09-03T03:02:31.123Z,84.05
2018-09-03T03:03:31.122Z,84.72
2018-09-03T03:04:31.124Z,84.62
2018-09-03T03:05:31.125Z,84.72
2018-09-03T03:06:31.126Z,84.53
2018-09-03T03:07:31.127Z,85.68
2018-09-03T03:08:31.130Z,85.54
2018-09-03T03:09:31.130Z,85.83
2018-09-03T03:10:31.133Z,85.93
2018-09-03T03:11:31.130Z,85.93
2018-09-03T03:12:31.134Z,85.87
2018-09-03T03:13:31.131Z,85.93
2018-09-03T03:14:31.133Z,86.22
2018-09-03T03:15:31.156Z,86.60
2018-09-03T03:16:31.135Z,85.83
2018-09-03T03:17:31.132Z,85.93
2018-09-03T03:18:31.137Z,86.02
2018-09-03T03:19:31.139Z,85.83
2018-09-03T03:20:31.143Z,86.51
2018-09-03T03:21:31.137Z,86.41
2018-09-03T03:22:31.164Z,86.41
2018-09-03T03:23:31.144Z,86.41
2018-09-03T03:24:31.142Z,86.41
2018-09-03T03:25:31.146Z,86.69
2018-09-03T03:26:31.145Z,86.22
2018-09-03T03:27:31.142Z,86.02
2018-09-03T03:28:31.144Z,86.12
2018-09-03T03:29:31.145Z,85.74
2018-09-03T03:30:31.147Z,86.12
2018-09-03T03:31:31.149Z,86.51
2018-09-03T03:32:31.151Z,86.60
2018-09-03T03:33:31.149Z,86.69
2018-09-03T03:34:31.151Z,86.41
2018-09-03T03:35:31.153Z,86.99
2018-09-03T03:36:31.152Z,86.99
2018-09-03T03:37:31.148Z,86.99
2018-09-03T03:38:31.152Z,87.18
2018-09-03T03:39:31.158Z,86.79
2018-09-03T03:40:31.162Z,86.99
2018-09-03T03:41:31.156Z,87.46
2018-09-03T03:42:31.161Z,87.46
2018-09-03T03:43:31.157Z,87.37
2018-09-03T03:44:31.162Z,87.95
2018-09-03T03:45:31.157Z,87.27
2018-09-03T03:46:31.160Z,86.89
2018-09-03T03:47:31.159Z,86.99
2018-09-03T03:48:31.190Z,86.69
2018-09-03T03:49:31.162Z,86.51
2018-09-03T03:50:31.163Z,86.60
2018-09-03T03:51:31.166Z,87.08
2018-09-03T03:52:31.166Z,87.56
2018-09-03T03:53:31.169Z,87.56
2018-09-03T03:54:31.166Z,87.56
2018-09-03T03:55:31.167Z,87.66
2018-09-03T03:56:31.168Z,87.85
2018-09-03T03:57:31.166Z,87.76
2018-09-03T03:58:31.165Z,87.52
2018-09-03T03:59:31.169Z,88.48
2018-09-03T04:00:31.171Z,88.48
2018-09-03T04:01:31.175Z,88.57
2018-09-03T04:02:31.176Z,88.00
2018-09-03T04:03:31.171Z,87.95
2018-09-03T04:04:31.171Z,88.19
2018-09-03T04:05:31.174Z,88.39
2018-09-03T04:06:31.175Z,88.10
2018-09-03T04:07:31.178Z,88.19
2018-09-03T04:08:31.178Z,88.87
2018-09-03T04:09:31.176Z,89.06
2018-09-03T04:10:31.182Z,88.67
2018-09-03T04:11:31.177Z,88.48
2018-09-03T04:12:31.181Z,88.87
2018-09-03T04:13:31.178Z,88.67
2018-09-03T04:14:31.182Z,88.67
2018-09-03T04:15:31.181Z,88.67
2018-09-03T04:16:31.183Z,88.96
2018-09-03T04:17:31.180Z,88.77
2018-09-03T04:18:31.183Z,88.19
2018-09-03T04:19:31.186Z,88.10
2018-09-03T04:20:31.182Z,88.29
2018-09-03T04:21:31.183Z,88.19
2018-09-03T04:22:31.185Z,88.87
2018-09-03T04:23:31.185Z,88.67
2018-09-03T04:24:31.183Z,88.39
2018-09-03T04:25:31.186Z,88.48
2018-09-03T04:26:31.232Z,88.39
2018-09-03T04:27:31.188Z,88.39
2018-09-03T04:28:31.187Z,88.29
2018-09-03T04:29:31.188Z,88.39
2018-09-03T04:30:31.193Z,88.77
2018-09-03T04:31:31.189Z,88.57
2018-09-03T04:32:31.189Z,88.67
2018-09-03T04:33:31.189Z,89.21
2018-09-03T04:34:31.193Z,89.30
2018-09-03T04:35:31.192Z,89.21
2018-09-03T04:36:31.192Z,89.21
2018-09-03T04:37:31.195Z,89.21
2018-09-03T04:38:31.253Z,89.88
2018-09-03T04:39:31.191Z,90.17
2018-09-03T04:40:31.192Z,90.17
2018-09-03T04:41:31.192Z,89.01
2018-09-03T04:42:31.192Z,89.21
2018-09-03T04:43:31.200Z,89.59
2018-09-03T04:44:31.192Z,89.78
2018-09-03T04:45:31.198Z,89.59
2018-09-03T04:46:31.195Z,89.40
2018-09-03T04:47:31.195Z,88.82
2018-09-03T04:48:31.197Z,89.01
2018-09-03T04:49:31.196Z,88.82
2018-09-03T04:50:31.198Z,89.01
2018-09-03T04:51:31.200Z,88.82
2018-09-03T04:52:31.198Z,89.11
2018-09-03T04:53:31.198Z,89.21
2018-09-03T04:54:31.201Z,89.50
2018-09-03T04:55:31.198Z,88.92
2018-09-03T04:56:31.200Z,89.50
2018-09-03T04:57:31.201Z,89.21
2018-09-03T04:58:31.200Z,89.40
2018-09-03T04:59:31.199Z,89.30
2018-09-03T05:00:31.200Z,88.82
2018-09-03T05:01:31.202Z,89.30
2018-09-03T05:02:31.202Z,88.63
2018-09-03T05:03:31.201Z,89.11
2018-09-03T05:04:31.206Z,89.11
2018-09-03T05:05:31.299Z,89.59
2018-09-03T05:06:31.202Z,89.11
2018-09-03T05:07:31.200Z,89.64
2018-09-03T05:08:31.209Z,88.48
2018-09-03T05:09:31.207Z,88.57
2018-09-03T05:10:31.204Z,88.87
2018-09-03T05:11:31.204Z,88.77
2018-09-03T05:12:31.205Z,88.29
2018-09-03T05:13:31.205Z,88.48
2018-09-03T05:14:31.210Z,88.00
2018-09-03T05:15:31.206Z,88.39
2018-09-03T05:16:31.206Z,88.29
2018-09-03T05:17:31.206Z,87.52
2018-09-03T05:18:31.209Z,87.71
2018-09-03T05:19:31.209Z,87.71
2018-09-03T05:20:31.208Z,86.89
2018-09-03T05:21:31.206Z,85.83
2018-09-03T05:22:31.209Z,84.81
2018-09-03T05:23:31.210Z,84.81
2018-09-03T05:24:31.210Z,83.28
2018-09-03T05:25:31.211Z,83.08
2018-09-03T05:26:31.209Z,83.66
2018-09-03T05:27:31.211Z,83.37
2018-09-03T05:28:31.210Z,82.89
2018-09-03T05:29:31.212Z,82.93
2018-09-03T05:30:31.212Z,82.89
2018-09-03T05:31:31.215Z,82.93
2018-09-03T05:32:31.214Z,82.83
2018-09-03T05:33:31.216Z,82.35
2018-09-03T05:34:31.215Z,81.77
2018-09-03T05:35:31.215Z,81.33
2018-09-03T05:36:31.220Z,80.56
2018-09-03T05:37:31.220Z,80.85
2018-09-03T05:38:31.218Z,80.76
2018-09-03T05:39:31.221Z,80.76
2018-09-03T05:40:31.218Z,80.18
2018-09-03T05:41:31.224Z,80.18
2018-09-03T05:42:31.240Z,79.89
2018-09-03T05:43:31.332Z,80.76
2018-09-03T05:44:31.229Z,79.75
2018-09-03T05:45:31.221Z,80.46
2018-09-03T05:46:31.228Z,79.60
2018-09-03T05:47:31.226Z,79.41
2018-09-03T05:48:31.229Z,79.89
2018-09-03T05:49:31.229Z,79.41
2018-09-03T05:50:31.240Z,78.96
2018-09-03T05:51:31.236Z,79.25
2018-09-03T05:52:31.231Z,78.71
2018-09-03T05:53:31.232Z,78.38
2018-09-03T05:54:31.239Z,78.96
2018-09-03T05:55:31.235Z,79.16
2018-09-03T05:56:31.238Z,79.06
2018-09-03T05:57:31.237Z,78.86
2018-09-03T05:58:31.240Z,79.02
2018-09-03T05:59:31.238Z,79.25
2018-09-03T06:00:31.245Z,78.67
2018-09-03T06:01:31.246Z,79.06
2018-09-03T06:02:31.247Z,78.67
2018-09-03T06:03:31.249Z,78.42
2018-09-03T06:04:31.247Z,77.55
2018-09-03T06:05:31.251Z,78.03
2018-09-03T06:06:31.302Z,77.46
2018-09-03T06:07:31.251Z,77.17
2018-09-03T06:08:31.255Z,78.00
2018-09-03T06:09:31.255Z,78.38
2018-09-03T06:10:31.285Z,77.90
2018-09-03T06:11:31.259Z,78.38
2018-09-03T06:12:31.262Z,78.38
2018-09-03T06:13:31.262Z,79.60
2018-09-03T06:14:31.266Z,80.23
2018-09-03T06:15:31.265Z,81.29
2018-09-03T06:16:31.269Z,81.48
2018-09-03T06:17:31.269Z,80.66
2018-09-03T06:18:31.269Z,80.37
2018-09-03T06:19:31.274Z,80.27
2018-09-03T06:20:31.275Z,79.69
2018-09-03T06:21:31.274Z,79.35
2018-09-03T06:22:31.275Z,79.89
2018-09-03T06:23:31.280Z,80.56
2018-09-03T06:24:31.280Z,80.27
2018-09-03T06:25:31.280Z,79.35
2018-09-03T06:26:31.287Z,79.35
2018-09-03T06:27:31.284Z,78.71
2018-09-03T06:28:31.286Z,78.83
2018-09-03T06:29:31.287Z,79.25
2018-09-03T06:30:31.288Z,79.79
2018-09-03T06:31:31.292Z,79.60
2018-09-03T06:32:31.299Z,79.44
2018-09-03T06:33:31.296Z,79.16
2018-09-03T06:34:31.296Z,79.44
2018-09-03T06:35:31.297Z,79.64
2018-09-03T06:36:31.329Z,79.06
2018-09-03T06:37:31.616Z,79.44
2018-09-03T06:38:31.301Z,78.77
2018-09-03T06:39:31.323Z,78.33
2018-09-03T06:40:31.875Z,78.42
2018-09-03T06:41:31.307Z,77.65
2018-09-03T06:42:31.314Z,76.92
2018-09-03T06:43:31.397Z,77.17
2018-09-03T06:44:31.313Z,78.42
2018-09-03T06:45:31.342Z,78.58
2018-09-03T06:46:31.382Z,78.81
2018-09-03T06:47:31.319Z,78.77
2018-09-03T06:48:31.321Z,78.29
2018-09-03T06:49:31.325Z,78.42
2018-09-03T06:50:31.324Z,77.50
2018-09-03T06:51:31.326Z,76.53
2018-09-03T06:52:31.392Z,76.72
2018-09-03T06:53:31.362Z,76.92
2018-09-03T06:54:31.334Z,76.34
2018-09-03T06:55:31.334Z,76.43
2018-09-03T06:56:31.353Z,76.37
2018-09-03T06:57:31.339Z,76.15
2018-09-03T06:58:31.594Z,75.95
2018-09-03T06:59:31.359Z,75.95
2018-09-03T07:00:31.351Z,75.85
2018-09-03T07:01:31.349Z,76.43
2018-09-03T07:02:31.351Z,76.34
2018-09-03T07:03:31.353Z,76.05
2018-09-03T07:04:31.356Z,76.05
2018-09-03T07:05:31.356Z,75.60
2018-09-03T07:06:31.360Z,75.67
2018-09-03T07:07:31.363Z,76.05
2018-09-03T07:08:31.676Z,76.34
2018-09-03T07:09:31.365Z,74.73
2018-09-03T07:10:31.367Z,74.44
2018-09-03T07:11:31.371Z,74.44
2018-09-03T07:12:31.372Z,74.16
2018-09-03T07:13:31.376Z,74.06
2018-09-03T07:14:31.380Z,73.52
2018-09-03T07:15:31.381Z,72.58
2018-09-03T07:16:31.383Z,71.46
2018-09-03T07:17:31.384Z,69.59
2018-09-03T07:18:31.393Z,68.05
2018-09-03T07:19:31.394Z,68.24
2018-09-03T07:20:31.395Z,67.60
2018-09-03T07:21:31.396Z,66.72
2018-09-03T07:22:31.400Z,66.08
2018-09-03T07:23:31.405Z,65.95
2018-09-03T07:24:31.414Z,67.43
2018-09-03T07:25:31.409Z,68.49
2018-09-03T07:26:31.974Z,68.59
2018-09-03T07:27:31.419Z,67.98
2018-09-03T07:28:31.426Z,66.82
2018-09-03T07:29:31.425Z,67.69
2018-09-03T07:30:31.434Z,67.02
2018-09-03T07:31:31.436Z,67.08
2018-09-03T07:32:31.439Z,67.66
2018-09-03T07:33:31.442Z,67.37
2018-09-03T07:34:31.448Z,67.11
2018-09-03T07:35:31.457Z,66.63
2018-09-03T07:36:31.455Z,67.85
2018-09-03T07:37:31.457Z,68.79
2018-09-03T07:38:31.465Z,70.07
2018-09-03T07:39:31.891Z,71.14
2018-09-03T07:40:31.524Z,71.91
2018-09-03T07:41:31.474Z,72.06
2018-09-03T07:42:31.478Z,73.13
2018-09-03T07:43:31.480Z,73.13
2018-09-03T07:44:31.486Z,72.78
2018-09-03T07:45:31.658Z,72.68
2018-09-03T07:46:31.493Z,72.36
2018-09-03T07:47:31.525Z,72.55
2018-09-03T07:48:31.500Z,72.20
2018-09-03T07:49:31.505Z,72.68
2018-09-03T07:50:31.508Z,71.94
2018-09-03T07:51:31.513Z,71.72
2018-09-03T07:52:31.524Z,70.94
2018-09-03T07:53:31.517Z,71.52
2018-09-03T07:54:31.521Z,71.58
2018-09-03T07:55:31.522Z,72.55
2018-09-03T07:56:31.525Z,71.81
2018-09-03T07:57:31.536Z,72.26
2018-09-03T07:58:31.536Z,72.45
2018-09-03T07:59:31.536Z,72.39
2018-09-03T08:00:31.543Z,72.10
2018-09-03T08:01:31.543Z,71.62
2018-09-03T08:02:32.065Z,72.49
2018-09-03T08:03:31.549Z,71.75
2018-09-03T08:04:31.557Z,71.75
2018-09-03T08:05:31.557Z,70.78
2018-09-03T08:06:31.559Z,70.88
2018-09-03T08:07:31.571Z,70.78
2018-09-03T08:08:31.565Z,71.04
2018-09-03T08:09:31.568Z,70.84
2018-09-03T08:10:31.673Z,71.14
2018-09-03T08:11:31.573Z,70.94
2018-09-03T08:12:31.576Z,70.78
2018-09-03T08:13:31.579Z,70.56
2018-09-03T08:14:31.584Z,71.17
2018-09-03T08:15:31.592Z,70.78
2018-09-03T08:16:31.592Z,71.17
2018-09-03T08:17:31.593Z,70.84
2018-09-03T08:18:31.596Z,70.68
2018-09-03T08:19:31.601Z,70.75
2018-09-03T08:20:31.607Z,70.75
2018-09-03T08:21:31.608Z,70.94
2018-09-03T08:22:31.614Z,70.94
2018-09-03T08:23:31.613Z,70.94
2018-09-03T08:24:31.620Z,71.08
2018-09-03T08:25:31.615Z,70.78
2018-09-03T08:26:31.622Z,70.30
2018-09-03T08:27:31.630Z,70.20
2018-09-03T08:28:31.632Z,70.50
2018-09-03T08:29:31.631Z,69.92
2018-09-03T08:30:31.634Z,69.82
2018-09-03T08:31:31.638Z,70.62
2018-09-03T08:32:31.640Z,70.04
2018-09-03T08:33:31.652Z,69.82
2018-09-03T08:34:31.648Z,69.56
2018-09-03T08:35:31.694Z,68.98
2018-09-03T08:36:31.656Z,68.69
2018-09-03T08:37:31.657Z,68.49
2018-09-03T08:38:31.675Z,68.95
2018-09-03T08:39:31.662Z,70.04
2018-09-03T08:40:31.668Z,69.72
2018-09-03T08:41:31.675Z,69.75
2018-09-03T08:42:31.674Z,69.14
2018-09-03T08:43:31.677Z,69.66
2018-09-03T08:44:31.681Z,69.27
2018-09-03T08:45:31.683Z,69.17
2018-09-03T08:46:31.687Z,67.72
2018-09-03T08:47:31.691Z,67.82
2018-09-03T08:48:31.693Z,67.66
2018-09-03T08:49:31.698Z,66.88
2018-09-03T08:50:31.700Z,67.33
2018-09-03T08:51:31.705Z,67.43
2018-09-03T08:52:31.709Z,67.82
2018-09-03T08:53:31.709Z,67.82
2018-09-03T08:54:31.714Z,66.75
2018-09-03T08:55:31.716Z,66.50
2018-09-03T08:56:31.717Z,66.40
2018-09-03T08:57:31.723Z,66.78
2018-09-03T08:58:31.728Z,65.82
2018-09-03T08:59:31.727Z,66.34
2018-09-03T09:00:31.731Z,65.95
2018-09-03T09:01:31.734Z,65.95
2018-09-03T09:02:31.739Z,65.66
2018-09-03T09:03:31.739Z,65.17
2018-09-03T09:04:31.745Z,65.08
2018-09-03T09:05:31.750Z,64.79
2018-09-03T09:06:31.749Z,65.08
2018-09-03T09:07:31.752Z,64.53
2018-09-03T09:08:31.760Z,64.79
2018-09-03T09:09:31.760Z,64.59
2018-09-03T09:10:31.765Z,65.30
2018-09-03T09:11:31.765Z,65.01
2018-09-03T09:12:31.770Z,64.82
2018-09-03T09:13:31.771Z,64.04
2018-09-03T09:14:31.778Z,64.59
2018-09-03T09:15:31.781Z,65.08
2018-09-03T09:16:31.783Z,65.40
2018-09-03T09:17:31.824Z,64.82
2018-09-03T09:18:31.789Z,64.53
2018-09-03T09:19:31.793Z,64.34
2018-09-03T09:20:31.796Z,64.43
2018-09-03T09:21:31.800Z,63.65
2018-09-03T09:22:31.801Z,63.95
2018-09-03T09:23:31.808Z,63.78
2018-09-03T09:24:31.816Z,63.10
2018-09-03T09:25:31.814Z,62.40
2018-09-03T09:26:31.814Z,62.88
2018-09-03T09:27:31.820Z,64.53
2018-09-03T09:28:31.823Z,63.98
2018-09-03T09:29:31.825Z,64.07
2018-09-03T09:30:31.826Z,63.56
2018-09-03T09:31:31.833Z,64.07
2018-09-03T09:32:31.836Z,64.47
2018-09-03T09:33:31.840Z,64.17
2018-09-03T09:34:31.981Z,63.98
2018-09-03T09:35:31.846Z,63.10
2018-09-03T09:36:31.849Z,63.40
2018-09-03T09:37:31.853Z,63.72
2018-09-03T09:38:31.860Z,62.16
2018-09-03T09:39:31.860Z,62.16
2018-09-03T09:40:31.862Z,62.36
2018-09-03T09:41:32.077Z,62.46
2018-09-03T09:42:31.873Z,61.88
2018-09-03T09:43:31.874Z,62.95
2018-09-03T09:44:31.879Z,61.88
2018-09-03T09:45:31.977Z,61.32
2018-09-03T09:46:31.886Z,60.61
2018-09-03T09:47:31.929Z,61.32
2018-09-03T09:48:31.895Z,60.61
2018-09-03T09:49:31.957Z,60.42
2018-09-03T09:50:31.900Z,60.55
2018-09-03T09:51:31.904Z,60.45
2018-09-03T09:52:31.909Z,61.32
2018-09-03T09:53:31.914Z,60.71
2018-09-03T09:54:31.915Z,60.64
2018-09-03T09:55:31.918Z,60.45
2018-09-03T09:56:32.499Z,61.04
2018-09-03T09:57:31.945Z,60.32
2018-09-03T09:58:31.964Z,59.94
2018-09-03T09:59:31.931Z,60.84
2018-09-03T10:00:31.938Z,60.35
2018-09-03T10:01:31.945Z,60.25
2018-09-03T10:02:32.139Z,60.91
2018-09-03T10:03:31.953Z,60.64
2018-09-03T10:04:31.982Z,60.84
2018-09-03T10:05:31.957Z,60.84
2018-09-03T10:06:31.967Z,60.74
2018-09-03T10:07:31.967Z,60.74
2018-09-03T10:08:31.968Z,60.06
2018-09-03T10:09:32.094Z,60.35
2018-09-03T10:10:31.976Z,60.35
2018-09-03T10:11:31.978Z,60.64
2018-09-03T10:12:31.988Z,60.84
2018-09-03T10:13:31.989Z,61.16
2018-09-03T10:14:32.137Z,60.58
2018-09-03T10:15:32.000Z,60.28
2018-09-03T10:16:32.005Z,59.90
2018-09-03T10:17:32.003Z,59.97
2018-09-03T10:18:32.009Z,61.04
2018-09-03T10:19:32.016Z,60.94
2018-09-03T10:20:32.018Z,60.97
2018-09-03T10:21:32.024Z,60.97
2018-09-03T10:22:32.025Z,60.28
2018-09-03T10:23:32.030Z,60.64
2018-09-03T10:24:32.029Z,60.97
2018-09-03T10:25:32.267Z,60.64
2018-09-03T10:26:32.046Z,60.64
2018-09-03T10:27:32.049Z,60.25
2018-09-03T10:28:32.051Z,60.58
2018-09-03T10:29:32.056Z,60.09
2018-09-03T10:30:32.061Z,60.97
2018-09-03T10:31:32.065Z,59.92
2018-09-03T10:32:32.066Z,59.34
2018-09-03T10:33:32.073Z,59.70
2018-09-03T10:34:32.129Z,60.00
2018-09-03T10:35:32.078Z,59.31
2018-09-03T10:36:32.502Z,58.64
2018-09-03T10:37:32.086Z,58.57
2018-09-03T10:38:32.090Z,59.22
2018-09-03T10:39:32.097Z,59.25
2018-09-03T10:40:32.103Z,59.44
2018-09-03T10:41:32.196Z,59.34
2018-09-03T10:42:32.897Z,58.28
2018-09-03T10:43:32.112Z,58.47
2018-09-03T10:44:32.116Z,59.34
2018-09-03T10:45:32.123Z,58.86
2018-09-03T10:46:32.123Z,58.86
2018-09-03T10:47:32.170Z,59.34
2018-09-03T10:48:32.131Z,59.03
2018-09-03T10:49:32.135Z,59.31
2018-09-03T10:50:32.140Z,58.73
2018-09-03T10:51:32.145Z,59.22
2018-09-03T10:52:32.153Z,58.93
2018-09-03T10:53:32.251Z,58.57
2018-09-03T10:54:32.157Z,58.18
2018-09-03T10:55:32.163Z,58.57
2018-09-03T10:56:32.169Z,58.64
2018-09-03T10:57:32.171Z,58.67
2018-09-03T10:58:32.175Z,58.28
2018-09-03T10:59:32.179Z,58.37
2018-09-03T11:00:32.183Z,58.34
2018-09-03T11:01:32.187Z,58.28
2018-09-03T11:02:32.192Z,58.18
2018-09-03T11:03:32.195Z,57.50
2018-09-03T11:04:32.200Z,58.25
2018-09-03T11:05:32.207Z,58.37
2018-09-03T11:06:32.206Z,58.18
2018-09-03T11:07:32.214Z,58.25
2018-09-03T11:08:32.218Z,58.54
2018-09-03T11:09:32.221Z,58.64
2018-09-03T11:10:32.222Z,58.25
2018-09-03T11:11:32.230Z,58.44
2018-09-03T11:12:32.236Z,58.67
2018-09-03T11:13:32.234Z,57.21
2018-09-03T11:14:32.246Z,57.21
2018-09-03T11:15:32.247Z,57.14
2018-09-03T11:16:32.251Z,57.07
2018-09-03T11:17:32.258Z,56.59
2018-09-03T11:18:32.262Z,55.32
2018-09-03T11:19:32.264Z,56.10
2018-09-03T11:20:32.270Z,56.29
2018-09-03T11:21:32.486Z,56.16
2018-09-03T11:22:32.290Z,56.85
2018-09-03T11:23:32.284Z,57.23
2018-09-03T11:24:32.288Z,57.21
2018-09-03T11:25:32.294Z,56.92
2018-09-03T11:26:32.298Z,56.52
2018-09-03T11:27:32.302Z,56.82
2018-09-03T11:28:32.334Z,56.82
2018-09-03T11:29:32.309Z,56.72
2018-09-03T11:30:32.314Z,56.62
2018-09-03T11:31:32.319Z,56.43
2018-09-03T11:32:32.322Z,56.52
2018-09-03T11:33:32.327Z,56.24
2018-09-03T11:34:32.333Z,56.52
2018-09-03T11:35:32.339Z,56.43
2018-09-03T11:36:32.340Z,56.14
2018-09-03T11:37:32.344Z,55.98
2018-09-03T11:38:32.351Z,55.00
2018-09-03T11:39:32.355Z,54.93
2018-09-03T11:40:32.360Z,54.83
2018-09-03T11:41:32.364Z,54.54
2018-09-03T11:42:32.603Z,54.05
2018-09-03T11:43:32.382Z,53.99
2018-09-03T11:44:32.382Z,53.69
2018-09-03T11:45:32.627Z,53.57
2018-09-03T11:46:32.390Z,53.28
2018-09-03T11:47:32.392Z,54.15
2018-09-03T11:48:32.533Z,53.89
2018-09-03T11:49:32.464Z,52.92
2018-09-03T11:50:32.406Z,52.98
2018-09-03T11:51:32.727Z,52.89
2018-09-03T11:52:32.477Z,53.47
2018-09-03T11:53:32.419Z,54.52
2018-09-03T11:54:32.501Z,54.25
2018-09-03T11:55:32.428Z,53.35
2018-09-03T11:56:32.432Z,54.15
2018-09-03T11:57:32.437Z,53.35
2018-09-03T11:58:32.443Z,54.13
2018-09-03T11:59:32.448Z,54.44
2018-09-03T12:00:32.510Z,53.57
2018-09-03T12:01:32.457Z,54.18
2018-09-03T12:02:32.465Z,53.23
2018-09-03T12:03:32.464Z,52.26
2018-09-03T12:04:32.470Z,51.48
2018-09-03T12:05:32.478Z,51.51
2018-09-03T12:06:32.518Z,50.41
2018-09-03T12:07:32.487Z,50.60
2018-09-03T12:08:32.498Z,50.41
2018-09-03T12:09:32.504Z,49.44
2018-09-03T12:10:32.502Z,50.58
2018-09-03T12:11:32.512Z,50.85
2018-09-03T12:12:32.511Z,51.33
2018-09-03T12:13:32.515Z,51.43
2018-09-03T12:14:32.530Z,52.11
2018-09-03T12:15:32.525Z,52.11
2018-09-03T12:16:32.533Z,52.69
2018-09-03T12:17:32.537Z,53.18
2018-09-03T12:18:32.543Z,52.96
2018-09-03T12:19:32.546Z,52.86
2018-09-03T12:20:32.550Z,53.25
2018-09-03T12:21:32.553Z,52.57
2018-09-03T12:22:32.559Z,52.67
2018-09-03T12:23:32.563Z,52.19
2018-09-03T12:24:32.569Z,53.06
2018-09-03T12:25:32.571Z,52.19
2018-09-03T12:26:32.579Z,51.99
2018-09-03T12:27:32.634Z,52.86
2018-09-03T12:28:32.592Z,52.21
2018-09-03T12:29:32.593Z,52.11
2018-09-03T12:30:32.600Z,51.62
2018-09-03T12:31:32.609Z,51.45
2018-09-03T12:32:32.618Z,50.97
2018-09-03T12:33:32.614Z,51.36
2018-09-03T12:34:32.624Z,51.48
2018-09-03T12:35:32.632Z,51.17
2018-09-03T12:36:32.636Z,51.33
2018-09-03T12:37:32.633Z,51.53
2018-09-03T12:38:32.639Z,51.92
2018-09-03T12:39:32.644Z,51.40
2018-09-03T12:40:32.643Z,51.92
2018-09-03T12:41:32.650Z,51.72
2018-09-03T12:42:32.657Z,51.60
2018-09-03T12:43:32.668Z,51.79
2018-09-03T12:44:32.693Z,51.60
2018-09-03T12:45:32.671Z,51.40
2018-09-03T12:46:32.674Z,51.21
2018-09-03T12:47:32.683Z,51.53
2018-09-03T12:48:32.690Z,50.95
2018-09-03T12:49:32.692Z,50.75
2018-09-03T12:50:32.695Z,51.14
2018-09-03T12:51:32.701Z,50.46
2018-09-03T12:52:32.706Z,50.85